createdAt,value
2018-08-16T00:00:18.026Z,4.00
2018-08-16T00:02:47.664Z,3.93
2018-08-16T00:05:16.881Z,4.40
2018-08-16T00:07:45.940Z,5.40
2018-08-16T00:10:16.844Z,5.40
2018-08-16T00:12:47.222Z,4.90
2018-08-16T00:15:17.054Z,5.10
2018-08-16T00:17:45.895Z,5.50
2018-08-16T00:20:15.300Z,4.20
2018-08-16T00:22:44.924Z,4.33
2018-08-16T00:25:14.670Z,4.43
2018-08-16T00:27:44.210Z,4.70
2018-08-16T00:30:13.780Z,4.73
2018-08-16T00:32:43.473Z,5.23
2018-08-16T00:35:12.797Z,4.60
2018-08-16T00:37:41.761Z,4.60
2018-08-16T00:40:12.314Z,5.10
2018-08-16T00:42:41.575Z,5.40
2018-08-16T00:45:11.746Z,4.97
2018-08-16T00:47:40.955Z,5.53
2018-08-16T00:50:11.775Z,5.90
2018-08-16T00:52:41.254Z,5.40
2018-08-16T00:55:11.696Z,5.73
2018-08-16T00:57:40.996Z,5.40
2018-08-16T01:00:13.360Z,5.80
2018-08-16T01:02:42.714Z,5.57
2018-08-16T01:05:12.464Z,5.37
2018-08-16T01:07:41.872Z,5.63
2018-08-16T01:10:13.851Z,4.90
2018-08-16T01:12:43.976Z,4.97
2018-08-16T01:15:15.101Z,5.57
2018-08-16T01:17:44.403Z,5.40
2018-08-16T01:20:13.369Z,5.67
2018-08-16T01:22:42.184Z,5.33
2018-08-16T01:25:12.165Z,4.17
2018-08-16T01:27:41.061Z,5.93
2018-08-16T01:30:10.615Z,5.70
2018-08-16T01:32:39.904Z,5.53
2018-08-16T01:35:09.578Z,6.00
2018-08-16T01:37:38.741Z,4.97
2018-08-16T01:40:08.331Z,4.83
2018-08-16T01:42:37.990Z,5.30
2018-08-16T01:45:07.184Z,4.93
2018-08-16T01:47:36.016Z,4.73
2018-08-16T01:50:06.364Z,4.70
2018-08-16T01:52:35.687Z,4.60
2018-08-16T01:55:05.028Z,4.53
2018-08-16T01:57:33.867Z,4.50
2018-08-16T02:00:03.137Z,3.77
2018-08-16T02:02:32.484Z,3.87
2018-08-16T02:05:02.730Z,3.90
2018-08-16T02:07:32.085Z,4.20
2018-08-16T02:10:01.025Z,4.10
2018-08-16T02:12:29.792Z,4.10
2018-08-16T02:14:58.643Z,5.17
2018-08-16T02:17:27.488Z,4.13
2018-08-16T02:19:56.325Z,4.90
2018-08-16T02:22:25.585Z,4.47
2018-08-16T02:24:54.878Z,4.23
2018-08-16T02:27:23.757Z,4.63
2018-08-16T02:29:53.052Z,5.00
2018-08-16T02:32:22.359Z,4.80
2018-08-16T02:34:51.668Z,4.60
2018-08-16T02:37:20.613Z,4.80
2018-08-16T02:39:49.846Z,4.77
2018-08-16T02:42:18.748Z,4.20
2018-08-16T02:44:47.556Z,4.67
2018-08-16T02:47:16.417Z,4.83
2018-08-16T02:49:45.211Z,4.73
2018-08-16T02:52:14.425Z,5.10
2018-08-16T02:54:43.765Z,5.53
2018-08-16T02:57:12.691Z,6.40
2018-08-16T02:59:41.946Z,5.43
2018-08-16T03:02:10.873Z,5.60
2018-08-16T03:04:40.053Z,5.97
2018-08-16T03:07:09.358Z,6.17
2018-08-16T03:09:38.678Z,4.87
2018-08-16T03:12:10.087Z,5.00
2018-08-16T03:14:39.387Z,5.43
2018-08-16T03:17:08.185Z,5.17
2018-08-16T03:19:37.382Z,5.27
2018-08-16T03:22:06.960Z,5.33
2018-08-16T03:24:36.265Z,5.17
2018-08-16T03:27:05.652Z,5.27
2018-08-16T03:29:34.961Z,4.80
2018-08-16T03:32:04.309Z,4.77
2018-08-16T03:34:33.220Z,5.40
2018-08-16T03:37:02.622Z,4.97
2018-08-16T03:39:31.616Z,5.13
2018-08-16T03:42:00.875Z,5.33
2018-08-16T03:44:30.140Z,5.20
2018-08-16T03:46:59.168Z,5.00
2018-08-16T03:49:27.994Z,5.30
2018-08-16T03:51:57.181Z,4.97
2018-08-16T03:54:26.402Z,5.33
2018-08-16T03:56:55.711Z,5.43
2018-08-16T03:59:24.951Z,5.93
2018-08-16T04:01:53.759Z,5.40
2018-08-16T04:04:22.573Z,5.40
2018-08-16T04:06:51.405Z,5.63
2018-08-16T04:09:20.592Z,5.33
2018-08-16T04:11:49.921Z,4.83
2018-08-16T04:14:19.204Z,5.20
2018-08-16T04:16:48.452Z,6.27
2018-08-16T04:19:17.800Z,5.57
2018-08-16T04:21:47.101Z,5.80
2018-08-16T04:24:16.343Z,4.80
2018-08-16T04:26:45.264Z,5.77
2018-08-16T04:29:14.429Z,5.57
2018-08-16T04:31:43.558Z,4.50
2018-08-16T04:34:12.524Z,4.93
2018-08-16T04:36:41.784Z,4.50
2018-08-16T04:39:11.521Z,4.40
2018-08-16T04:41:40.942Z,4.63
2018-08-16T04:44:09.723Z,5.13
2018-08-16T04:46:38.929Z,4.67
2018-08-16T04:49:08.292Z,4.50
2018-08-16T04:51:37.180Z,4.23
2018-08-16T04:54:05.983Z,3.80
2018-08-16T04:56:34.819Z,4.13
2018-08-16T04:59:03.612Z,3.67
2018-08-16T05:01:32.440Z,4.07
2018-08-16T05:04:01.655Z,4.00
2018-08-16T05:06:31.004Z,4.33
2018-08-16T05:09:00.270Z,4.13
2018-08-16T05:11:29.594Z,4.20
2018-08-16T05:13:58.871Z,4.77
2018-08-16T05:16:28.185Z,3.27
2018-08-16T05:18:57.461Z,3.80
2018-08-16T05:21:26.349Z,3.40
2018-08-16T05:23:55.606Z,3.53
2018-08-16T05:26:24.845Z,3.80
2018-08-16T05:28:54.108Z,3.77
2018-08-16T05:31:23.426Z,4.50
2018-08-16T05:33:52.355Z,4.30
2018-08-16T05:36:21.520Z,4.50
2018-08-16T05:38:50.459Z,4.80
2018-08-16T05:41:19.583Z,4.50
2018-08-16T05:43:48.553Z,4.83
2018-08-16T05:46:17.417Z,4.43
2018-08-16T05:48:46.504Z,4.40
2018-08-16T05:51:15.808Z,4.80
2018-08-16T05:53:44.729Z,4.87
2018-08-16T05:56:13.589Z,5.63
2018-08-16T05:58:42.789Z,4.93
2018-08-16T06:01:11.811Z,4.80
2018-08-16T06:03:40.608Z,4.53
2018-08-16T06:06:09.441Z,4.63
2018-08-16T06:08:38.251Z,5.20
2018-08-16T06:11:07.428Z,4.90
2018-08-16T06:13:36.368Z,4.37
2018-08-16T06:16:06.273Z,4.90
2018-08-16T06:18:35.239Z,4.23
2018-08-16T06:21:04.443Z,4.90
2018-08-16T06:23:58.012Z,4.90
2018-08-16T06:26:26.781Z,4.30
2018-08-16T06:28:56.053Z,4.27
2018-08-16T06:31:25.004Z,5.50
2018-08-16T06:33:54.204Z,5.03
2018-08-16T06:36:23.430Z,4.37
2018-08-16T06:38:52.408Z,4.63
2018-08-16T06:41:21.692Z,3.60
2018-08-16T06:43:50.592Z,3.90
2018-08-16T06:46:19.443Z,5.43
2018-08-16T06:48:48.267Z,4.27
2018-08-16T06:51:17.470Z,4.30
2018-08-16T06:53:46.795Z,3.90
2018-08-16T06:56:15.717Z,4.70
2018-08-16T06:58:44.518Z,3.80
2018-08-16T07:01:13.411Z,4.47
2018-08-16T07:03:42.239Z,4.70
2018-08-16T07:06:11.466Z,4.07
2018-08-16T07:08:40.766Z,4.67
2018-08-16T07:11:10.161Z,4.30
2018-08-16T07:13:39.111Z,3.50
2018-08-16T07:16:08.380Z,4.43
2018-08-16T07:18:37.731Z,4.30
2018-08-16T07:21:06.785Z,4.13
2018-08-16T07:23:35.945Z,3.73
2018-08-16T07:26:04.824Z,4.07
2018-08-16T07:28:33.648Z,3.70
2018-08-16T07:31:03.092Z,3.90
2018-08-16T07:33:32.018Z,3.47
2018-08-16T07:36:01.227Z,3.47
2018-08-16T07:38:30.840Z,3.73
2018-08-16T07:40:59.789Z,3.40
2018-08-16T07:43:29.103Z,3.40
2018-08-16T07:45:58.396Z,3.03
2018-08-16T07:48:27.383Z,3.27
2018-08-16T07:50:56.648Z,3.00
2018-08-16T07:53:25.977Z,3.57
2018-08-16T07:55:55.414Z,3.27
2018-08-16T07:58:24.377Z,3.77
2018-08-16T08:00:53.622Z,3.33
2018-08-16T08:03:22.503Z,3.57
2018-08-16T08:05:51.713Z,3.13
2018-08-16T08:08:20.597Z,3.47
2018-08-16T08:10:49.386Z,3.50
2018-08-16T08:13:18.936Z,3.70
2018-08-16T08:15:48.206Z,3.47
2018-08-16T08:18:17.152Z,3.47
2018-08-16T08:20:46.342Z,3.57
2018-08-16T08:23:15.705Z,3.70
2018-08-16T08:25:44.624Z,3.20
2018-08-16T08:28:13.463Z,2.73
2018-08-16T08:30:42.298Z,3.87
2018-08-16T08:33:11.538Z,2.60
2018-08-16T08:35:40.412Z,2.97
2018-08-16T08:38:12.819Z,3.10
2018-08-16T08:40:41.812Z,2.92
2018-08-16T08:43:15.484Z,2.77
2018-08-16T08:45:44.804Z,2.83
2018-08-16T08:48:13.711Z,3.20
2018-08-16T08:50:42.504Z,2.97
2018-08-16T08:53:22.860Z,2.80
2018-08-16T08:56:03.270Z,2.97
2018-08-16T08:58:37.636Z,3.27
2018-08-16T09:01:07.148Z,3.20
2018-08-16T09:03:36.482Z,3.10
2018-08-16T09:06:05.959Z,3.50
2018-08-16T09:08:34.820Z,3.37
2018-08-16T09:11:16.350Z,5.43
2018-08-16T09:13:58.852Z,3.00
2018-08-16T09:16:29.421Z,3.47
2018-08-16T09:18:58.718Z,3.80
2018-08-16T09:21:28.821Z,3.50
2018-08-16T09:23:57.868Z,3.37
2018-08-16T09:26:31.846Z,3.67
2018-08-16T09:29:01.068Z,3.37
2018-08-16T09:31:41.367Z,3.37
2018-08-16T09:34:16.720Z,3.33
2018-08-16T09:36:46.032Z,2.90
2018-08-16T09:39:14.963Z,3.13
2018-08-16T09:41:43.768Z,2.80
2018-08-16T09:44:12.727Z,3.20
2018-08-16T09:46:48.357Z,3.03
2018-08-16T09:49:17.256Z,2.83
2018-08-16T09:51:46.910Z,2.33
2018-08-16T09:54:15.771Z,2.93
2018-08-16T09:56:45.224Z,2.80
2018-08-16T09:59:14.170Z,3.00
2018-08-16T10:01:43.044Z,2.80
2018-08-16T10:04:12.045Z,2.90
2018-08-16T10:06:42.253Z,3.37
2018-08-16T10:09:13.096Z,3.20
2018-08-16T10:11:42.085Z,2.90
2018-08-16T10:14:11.304Z,3.17
2018-08-16T10:16:40.785Z,3.10
2018-08-16T10:19:09.724Z,3.23
2018-08-16T10:21:38.621Z,2.83
2018-08-16T10:24:07.518Z,3.00
2018-08-16T10:26:36.334Z,3.47
2018-08-16T10:29:06.252Z,2.90
2018-08-16T10:31:35.185Z,2.50
2018-08-16T10:34:04.529Z,2.77
2018-08-16T10:36:51.670Z,2.97
2018-08-16T10:39:42.803Z,2.90
2018-08-16T10:42:11.676Z,2.60
2018-08-16T10:44:40.898Z,3.10
2018-08-16T10:47:10.199Z,3.10
2018-08-16T10:49:39.539Z,3.27
2018-08-16T10:52:14.984Z,2.90
2018-08-16T10:54:43.905Z,3.00
2018-08-16T10:57:12.708Z,3.27
2018-08-16T10:59:41.646Z,3.57
2018-08-16T11:02:10.539Z,3.10
2018-08-16T11:04:39.401Z,3.13
2018-08-16T11:07:08.661Z,3.97
2018-08-16T11:09:44.168Z,3.23
2018-08-16T11:12:13.132Z,3.50
2018-08-16T11:14:42.338Z,3.17
2018-08-16T11:17:11.319Z,2.87
2018-08-16T11:19:40.172Z,2.63
2018-08-16T11:22:09.009Z,2.90
2018-08-16T11:24:37.805Z,2.97
2018-08-16T11:27:11.175Z,2.37
2018-08-16T11:35:32.381Z,2.20
2018-08-16T11:38:01.182Z,2.20
2018-08-16T11:40:30.038Z,2.47
2018-08-16T11:42:59.223Z,2.03
2018-08-16T11:45:28.131Z,2.33
2018-08-16T11:47:57.016Z,1.50
2018-08-16T11:50:25.883Z,1.80
2018-08-16T11:52:54.790Z,1.07
2018-08-16T11:55:23.662Z,1.30
2018-08-16T11:57:52.808Z,1.30
2018-08-16T12:00:22.388Z,1.33
2018-08-16T12:02:51.265Z,1.57
2018-08-16T12:05:20.132Z,1.60
2018-08-16T12:07:49.316Z,1.33
2018-08-16T12:10:18.272Z,1.23
2018-08-16T12:12:47.063Z,1.23
2018-08-16T12:15:15.959Z,1.40
2018-08-16T12:17:44.729Z,2.80
2018-08-16T12:20:13.968Z,1.53
2018-08-16T12:22:42.880Z,1.43
2018-08-16T12:25:12.121Z,1.63
2018-08-16T12:27:41.004Z,1.90
2018-08-16T12:30:10.475Z,1.87
2018-08-16T12:32:39.341Z,1.77
2018-08-16T12:35:08.667Z,2.00
2018-08-16T12:37:38.034Z,2.27
2018-08-16T12:40:07.174Z,2.50
2018-08-16T12:42:35.991Z,2.37
2018-08-16T12:45:05.016Z,2.20
2018-08-16T12:47:33.805Z,2.67
2018-08-16T12:50:02.680Z,2.17
2018-08-16T12:52:31.482Z,2.63
2018-08-16T12:55:00.272Z,2.30
2018-08-16T12:57:29.129Z,2.00
2018-08-16T12:59:58.037Z,1.90
2018-08-16T13:02:31.541Z,1.60
2018-08-16T13:05:29.387Z,2.77
2018-08-16T13:10:59.297Z,1.47
2018-08-16T13:13:31.576Z,1.30
2018-08-16T13:16:00.764Z,1.40
2018-08-16T13:18:45.046Z,1.27
2018-08-16T13:21:24.624Z,1.20
2018-08-16T13:23:53.600Z,1.47
2018-08-16T13:26:22.834Z,1.87
2018-08-16T13:28:53.564Z,1.40
2018-08-16T13:31:34.303Z,1.60
2018-08-16T13:34:13.734Z,1.53
2018-08-16T13:36:44.164Z,1.90
2018-08-16T13:42:20.304Z,1.67
2018-08-16T13:44:51.419Z,1.70
2018-08-16T13:47:20.265Z,1.77
2018-08-16T13:49:49.149Z,1.50
2018-08-16T13:52:17.961Z,1.60
2018-08-16T13:54:46.827Z,1.43
2018-08-16T13:57:16.038Z,1.60
2018-08-16T13:59:45.094Z,1.60
2018-08-16T14:02:14.792Z,2.10
2018-08-16T14:04:43.754Z,1.50
2018-08-16T14:07:12.606Z,1.33
2018-08-16T14:09:41.869Z,1.70
2018-08-16T14:12:10.995Z,1.57
2018-08-16T14:17:17.608Z,1.13
2018-08-16T14:20:10.948Z,1.37
2018-08-16T14:22:47.289Z,1.27
2018-08-16T14:28:09.109Z,1.27
2018-08-16T14:30:38.405Z,1.30
2018-08-16T14:35:56.842Z,1.27
2018-08-16T14:38:25.740Z,1.73
2018-08-16T14:40:55.089Z,1.40
2018-08-16T14:46:17.381Z,1.03
2018-08-16T14:48:49.260Z,1.00
2018-08-16T14:51:18.111Z,1.23
2018-08-16T14:53:47.349Z,1.37
2018-08-16T14:56:16.235Z,1.83
2018-08-16T14:58:53.208Z,1.10
2018-08-16T15:01:22.870Z,1.00
2018-08-16T15:03:51.914Z,1.40
2018-08-16T15:06:21.225Z,1.60
2018-08-16T15:08:50.154Z,2.00
2018-08-16T15:11:21.778Z,1.53
2018-08-16T15:13:50.716Z,1.60
2018-08-16T15:16:20.272Z,1.90
2018-08-16T15:18:53.373Z,1.90
2018-08-16T15:24:25.093Z,1.93
2018-08-16T15:32:44.880Z,1.93
2018-08-16T15:35:16.998Z,1.70
2018-08-16T15:38:02.195Z,2.37
2018-08-16T15:40:31.063Z,1.80
2018-08-16T15:42:59.955Z,2.07
2018-08-16T15:48:28.374Z,2.20
2018-08-16T15:50:57.306Z,1.80
2018-08-16T15:53:26.179Z,2.37
2018-08-16T15:55:56.051Z,2.10
2018-08-16T15:58:25.304Z,1.80
2018-08-16T16:01:00.767Z,2.27
2018-08-16T16:06:23.811Z,2.03
2018-08-16T16:08:53.560Z,1.77
2018-08-16T16:11:22.451Z,2.27
2018-08-16T16:13:51.347Z,2.57
2018-08-16T16:16:23.205Z,2.33
2018-08-16T16:18:57.320Z,1.80
2018-08-16T16:27:20.072Z,3.00
2018-08-16T16:29:48.980Z,2.60
2018-08-16T16:32:18.024Z,2.40
2018-08-16T16:34:46.931Z,2.30
2018-08-16T16:37:15.813Z,2.00
2018-08-16T16:39:44.637Z,2.10
2018-08-16T16:42:13.917Z,2.30
2018-08-16T16:44:42.888Z,2.27
2018-08-16T16:47:11.788Z,2.00
2018-08-16T16:49:40.652Z,2.63
2018-08-16T16:52:09.981Z,1.90
2018-08-16T16:54:39.382Z,2.10
2018-08-16T16:57:08.287Z,2.40
2018-08-16T16:59:37.147Z,2.00
2018-08-16T17:02:06.109Z,2.63
2018-08-16T17:04:35.132Z,1.90
2018-08-16T17:07:05.202Z,2.17
2018-08-16T17:15:21.445Z,2.33
2018-08-16T17:17:50.786Z,2.93
2018-08-16T17:23:13.416Z,2.70
2018-08-16T17:40:35.971Z,3.77
2018-08-16T17:43:11.316Z,2.73
2018-08-16T17:45:40.254Z,2.43
2018-08-16T17:48:09.268Z,2.40
2018-08-16T17:50:38.151Z,2.70
2018-08-16T17:53:07.629Z,2.40
2018-08-16T17:55:37.726Z,1.77
2018-08-16T17:58:15.046Z,1.90
2018-08-16T18:00:44.041Z,2.37
2018-08-16T18:03:12.848Z,2.30
2018-08-16T18:17:45.547Z,2.03
2018-08-16T18:20:14.398Z,3.20
2018-08-16T18:22:43.184Z,3.30
2018-08-16T18:25:11.920Z,2.13
2018-08-16T18:27:40.711Z,2.90
2018-08-16T18:30:10.579Z,2.50
2018-08-16T18:32:39.399Z,2.53
2018-08-16T18:35:08.273Z,2.60
2018-08-16T18:37:37.138Z,2.90
2018-08-16T18:40:06.326Z,1.97
2018-08-16T18:42:35.189Z,2.67
2018-08-16T18:45:04.317Z,2.50
2018-08-16T18:47:33.084Z,2.63
2018-08-16T18:50:01.846Z,2.63
2018-08-16T18:52:30.657Z,2.87
2018-08-16T18:54:59.395Z,2.50
2018-08-16T18:57:28.419Z,2.90
2018-08-16T18:59:57.279Z,2.77
2018-08-16T19:02:26.086Z,2.37
2018-08-16T19:04:54.859Z,2.77
2018-08-16T19:07:23.729Z,2.77
2018-08-16T19:09:52.445Z,3.47
2018-08-16T19:12:21.207Z,2.77
2018-08-16T19:14:49.991Z,2.50
2018-08-16T19:17:18.783Z,4.37
2018-08-16T19:19:47.585Z,2.33
2018-08-16T19:22:16.359Z,3.43
2018-08-16T19:24:45.181Z,2.80
2018-08-16T19:27:13.991Z,2.77
2018-08-16T19:29:42.835Z,2.97
2018-08-16T19:32:11.564Z,3.40
2018-08-16T19:34:40.335Z,2.70
2018-08-16T19:37:09.099Z,2.80
2018-08-16T19:39:37.880Z,2.57
2018-08-16T19:42:06.699Z,4.13
2018-08-16T19:44:35.842Z,3.00
2018-08-16T19:47:04.681Z,2.67
2018-08-16T19:49:33.491Z,2.17
2018-08-16T19:52:02.255Z,3.07
2018-08-16T19:54:31.035Z,3.00
2018-08-16T19:56:59.829Z,4.17
2018-08-16T19:59:28.574Z,3.33
2018-08-16T20:01:57.333Z,4.13
2018-08-16T20:04:26.161Z,3.13
2018-08-16T20:06:55.176Z,3.37
2018-08-16T20:09:23.907Z,3.10
2018-08-16T20:11:52.663Z,2.90
2018-08-16T20:14:21.586Z,2.87
2018-08-16T20:16:50.341Z,2.90
2018-08-16T20:19:19.167Z,3.27
2018-08-16T20:21:47.997Z,2.67
2018-08-16T20:24:16.880Z,3.23
2018-08-16T20:26:45.752Z,2.43
2018-08-16T20:29:14.604Z,2.70
2018-08-16T20:31:43.451Z,2.73
2018-08-16T20:34:12.377Z,2.97
2018-08-16T20:36:41.140Z,2.57
2018-08-16T20:39:10.070Z,3.70
2018-08-16T20:41:38.871Z,2.63
2018-08-16T20:44:07.700Z,3.67
2018-08-16T20:46:36.569Z,3.33
2018-08-16T20:49:05.322Z,3.13
2018-08-16T20:51:34.100Z,2.97
2018-08-16T20:54:02.894Z,2.93
2018-08-16T20:56:31.679Z,2.97
2018-08-16T20:59:00.522Z,3.37
2018-08-16T21:01:29.338Z,2.70
2018-08-16T21:03:58.154Z,3.17
2018-08-16T21:06:26.963Z,3.50
2018-08-16T21:08:55.772Z,2.93
2018-08-16T21:11:24.528Z,3.70
2018-08-16T21:13:53.321Z,3.00
2018-08-16T21:16:22.087Z,3.80
2018-08-16T21:18:50.859Z,4.93
2018-08-16T21:21:19.654Z,3.93
2018-08-16T21:23:48.439Z,3.70
2018-08-16T21:26:17.233Z,4.37
2018-08-16T21:28:45.971Z,4.20
2018-08-16T21:31:14.759Z,3.70
2018-08-16T21:33:43.534Z,3.57
2018-08-16T21:36:12.314Z,3.37
2018-08-16T21:38:41.111Z,3.80
2018-08-16T21:41:09.889Z,4.10
2018-08-16T21:43:38.631Z,3.83
2018-08-16T21:46:07.419Z,4.50
2018-08-16T21:48:36.219Z,3.60
2018-08-16T21:51:05.026Z,3.67
2018-08-16T21:53:33.969Z,3.47
2018-08-16T21:56:02.797Z,4.30
2018-08-16T21:58:31.547Z,3.50
2018-08-16T22:01:04.404Z,3.97
2018-08-16T22:03:33.181Z,3.60
2018-08-16T22:06:04.530Z,3.37
2018-08-16T22:08:49.767Z,3.67
2018-08-16T22:11:18.754Z,5.40
2018-08-16T22:13:47.571Z,4.47
2018-08-16T22:16:16.319Z,3.87
2018-08-16T22:18:45.107Z,3.53
2018-08-16T22:21:13.885Z,3.17
2018-08-16T22:23:42.656Z,3.53
2018-08-16T22:26:11.500Z,4.23
2018-08-16T22:28:40.228Z,4.27
2018-08-16T22:31:09.162Z,4.33
2018-08-16T22:33:37.965Z,3.57
2018-08-16T22:36:07.174Z,3.97
2018-08-16T22:38:36.068Z,3.77
2018-08-16T22:41:04.898Z,3.47
2018-08-16T22:43:33.691Z,3.20
2018-08-16T22:46:02.450Z,2.73
2018-08-16T22:48:31.244Z,3.70
2018-08-16T22:51:00.043Z,3.13
2018-08-16T22:53:28.840Z,2.27
2018-08-16T22:55:57.687Z,2.23
2018-08-16T22:58:26.470Z,1.80
2018-08-16T23:00:55.385Z,2.43
2018-08-16T23:03:24.131Z,2.67
2018-08-16T23:05:52.943Z,2.77
2018-08-16T23:08:21.726Z,2.30
2018-08-16T23:10:50.475Z,2.20
2018-08-16T23:13:19.248Z,1.97
2018-08-16T23:15:47.987Z,2.27
2018-08-16T23:18:16.739Z,1.97
2018-08-16T23:20:45.471Z,1.80
2018-08-16T23:23:14.268Z,1.90
2018-08-16T23:25:43.039Z,1.80
2018-08-16T23:28:11.779Z,2.07
2018-08-16T23:30:40.543Z,1.80
2018-08-16T23:33:09.295Z,2.87
2018-08-16T23:35:38.083Z,2.10
2018-08-16T23:38:06.882Z,1.73
2018-08-16T23:40:35.676Z,1.73
2018-08-16T23:43:04.450Z,1.70
2018-08-16T23:45:33.223Z,1.50
2018-08-16T23:48:07.503Z,2.20
2018-08-16T23:50:36.283Z,1.73
2018-08-16T23:53:05.065Z,1.87
2018-08-16T23:55:33.826Z,1.83
2018-08-16T23:58:08.936Z,1.37
